Aérodrome :
LOGIN :

S'inscrire | Disclaimer

   EN    FR    IT 

 










Légende :    VFR   VFR Marginal   IFR   IFR Intensif   IFR Très Intensif
Visi : 
Plafond : 
>= 8 km
>= 3000ft
5 à 8 km
1000 à 3000 ft
1500m à 5 km
500 à 1000 ft
800 à 1500m
200 à 500 ft
< 800m
< 200 ft
Symboles :   Orages  Brouillard  Fortes neiges  Fortes précipitations  Vent > 20 kt
SIGMETs :   Divers  Orages  Givrage  Turbulence  Onde Orograph.  Cendres Volcan.






- Altitude de l'aérodrome : 373 ft
- Code IATA : OZH


UKDE - Mokraya

DERNIER METAR :
  • 030430Z 08004MPS 040V130 3100 BR OVC002 M01/M02 Q1027 R02/710570 NOSIG

METARs EXPIRÉS :
  • 030400Z 07003MPS 040V100 2200 BR OVC002 M02/M02 Q1027 R02/710570 NOSIG
  • 030330Z 08004MPS 030V100 2000 BR OVC002 M02/M02 Q1027 R02/710570 NOSIG
  • 030300Z 07005MPS 1900 BR OVC002 M02/M02 Q1027 R02/710570 NOSIG
  • 030200Z 08003MPS 040V110 2400 BR OVC002 M02/M03 Q1027 R02/710570 NOSIG

TAF COR TAF UKDE
Valide du 03 à 03h jusqu'au 03 à 12h UTC


030212Z 0303/0312 08005MPS 0200 -FZDZ FZFG VV002 TX02/0312Z TNM02/0303Z
TEMPO 0303/0307 1000 BR OVC005
BECMG 0307/0309 11006MPS 5000 BR OVC006
FIR UKDV / Europe



MET'MAP, la Météo Aéronautique d'un coup d'oeil ! - Copyright ORBIFLY Décembre 2007 - Disclaimer

ORBIFLY MET'MAP TEAM :

Programmation & Développement : Alexandra Zaïnal
Sur une idée originale de : Baudouin d'Aumeries
Assistance à la programmation : Marc-Olivier Méhu
Soutien technique & logistique : Manuel Goepfert

Contact : metmap@orbifly.com




SOURCES & CREDITS :

   NOAA